sensor_id;sensor_type;location;lat;lon;timestamp;P1;durP1;ratioP1;P2;durP2;ratioP2
76113;SDS011;64845;53.086;5.834;2023-02-24T00:01:35;6.72;;;1.50;;
76113;SDS011;64845;53.086;5.834;2023-02-24T00:04:02;13.80;;;1.75;;
76113;SDS011;64845;53.086;5.834;2023-02-24T00:06:32;10.20;;;1.67;;
76113;SDS011;64845;53.086;5.834;2023-02-24T00:11:30;11.85;;;1.70;;
76113;SDS011;64845;53.086;5.834;2023-02-24T00:13:55;5.88;;;1.40;;
76113;SDS011;64845;53.086;5.834;2023-02-24T00:16:21;6.88;;;1.20;;
76113;SDS011;64845;53.086;5.834;2023-02-24T00:18:49;8.70;;;1.75;;
76113;SDS011;64845;53.086;5.834;2023-02-24T00:21:15;8.73;;;1.65;;
76113;SDS011;64845;53.086;5.834;2023-02-24T00:23:44;8.75;;;1.27;;
76113;SDS011;64845;53.086;5.834;2023-02-24T00:26:11;8.70;;;1.58;;
76113;SDS011;64845;53.086;5.834;2023-02-24T00:28:38;10.32;;;1.40;;
76113;SDS011;64845;53.086;5.834;2023-02-24T00:31:06;11.30;;;1.40;;
76113;SDS011;64845;53.086;5.834;2023-02-24T00:33:37;7.32;;;1.75;;
76113;SDS011;64845;53.086;5.834;2023-02-24T00:36:13;4.03;;;1.02;;
76113;SDS011;64845;53.086;5.834;2023-02-24T00:38:41;8.05;;;1.20;;
76113;SDS011;64845;53.086;5.834;2023-02-24T00:41:11;9.10;;;1.40;;
76113;SDS011;64845;53.086;5.834;2023-02-24T00:43:42;4.25;;;1.02;;
76113;SDS011;64845;53.086;5.834;2023-02-24T00:46:17;9.07;;;1.42;;
76113;SDS011;64845;53.086;5.834;2023-02-24T00:48:45;7.05;;;1.40;;
76113;SDS011;64845;53.086;5.834;2023-02-24T00:51:16;7.72;;;1.48;;
76113;SDS011;64845;53.086;5.834;2023-02-24T00:53:48;10.93;;;1.52;;
76113;SDS011;64845;53.086;5.834;2023-02-24T00:56:15;7.90;;;1.30;;
76113;SDS011;64845;53.086;5.834;2023-02-24T00:58:41;9.07;;;1.58;;
76113;SDS011;64845;53.086;5.834;2023-02-24T01:01:16;5.63;;;1.38;;
76113;SDS011;64845;53.086;5.834;2023-02-24T01:03:46;5.45;;;1.20;;
76113;SDS011;64845;53.086;5.834;2023-02-24T01:06:18;5.10;;;1.05;;
76113;SDS011;64845;53.086;5.834;2023-02-24T01:08:45;6.53;;;1.35;;
76113;SDS011;64845;53.086;5.834;2023-02-24T01:11:15;8.77;;;1.50;;
76113;SDS011;64845;53.086;5.834;2023-02-24T01:14:04;12.00;;;1.50;;
76113;SDS011;64845;53.086;5.834;2023-02-24T01:16:34;11.52;;;1.50;;
76113;SDS011;64845;53.086;5.834;2023-02-24T01:19:00;7.10;;;1.80;;
76113;SDS011;64845;53.086;5.834;2023-02-24T01:21:26;4.25;;;1.20;;
76113;SDS011;64845;53.086;5.834;2023-02-24T01:23:53;13.55;;;1.75;;
76113;SDS011;64845;53.086;5.834;2023-02-24T01:26:18;11.68;;;1.30;;
76113;SDS011;64845;53.086;5.834;2023-02-24T01:28:44;10.80;;;1.38;;
76113;SDS011;64845;53.086;5.834;2023-02-24T01:31:10;5.90;;;1.10;;
76113;SDS011;64845;53.086;5.834;2023-02-24T01:33:37;12.05;;;2.28;;
76113;SDS011;64845;53.086;5.834;2023-02-24T01:36:13;14.57;;;1.48;;
76113;SDS011;64845;53.086;5.834;2023-02-24T01:38:41;10.48;;;1.10;;
76113;SDS011;64845;53.086;5.834;2023-02-24T01:41:11;5.20;;;1.20;;
76113;SDS011;64845;53.086;5.834;2023-02-24T01:46:19;5.93;;;1.42;;
76113;SDS011;64845;53.086;5.834;2023-02-24T01:48:48;8.93;;;1.35;;
76113;SDS011;64845;53.086;5.834;2023-02-24T01:51:14;15.23;;;1.52;;
76113;SDS011;64845;53.086;5.834;2023-02-24T01:53:40;6.30;;;1.40;;
76113;SDS011;64845;53.086;5.834;2023-02-24T01:56:06;10.82;;;1.63;;
76113;SDS011;64845;53.086;5.834;2023-02-24T01:58:31;7.63;;;1.33;;
76113;SDS011;64845;53.086;5.834;2023-02-24T02:00:58;7.90;;;1.23;;
76113;SDS011;64845;53.086;5.834;2023-02-24T02:03:31;9.95;;;1.15;;
76113;SDS011;64845;53.086;5.834;2023-02-24T02:06:02;5.68;;;1.00;;
76113;SDS011;64845;53.086;5.834;2023-02-24T02:08:31;4.55;;;1.33;;
76113;SDS011;64845;53.086;5.834;2023-02-24T02:11:10;5.68;;;1.38;;
76113;SDS011;64845;53.086;5.834;2023-02-24T02:13:40;5.32;;;1.13;;
76113;SDS011;64845;53.086;5.834;2023-02-24T02:16:31;12.65;;;1.52;;
76113;SDS011;64845;53.086;5.834;2023-02-24T02:19:45;5.30;;;1.17;;
76113;SDS011;64845;53.086;5.834;2023-02-24T02:25:10;3.92;;;1.10;;
76113;SDS011;64845;53.086;5.834;2023-02-24T02:30:32;4.23;;;0.90;;
76113;SDS011;64845;53.086;5.834;2023-02-24T02:41:47;10.80;;;1.88;;
76113;SDS011;64845;53.086;5.834;2023-02-24T02:45:08;8.90;;;1.08;;
76113;SDS011;64845;53.086;5.834;2023-02-24T02:47:28;8.40;;;1.20;;
76113;SDS011;64845;53.086;5.834;2023-02-24T02:50:02;10.07;;;1.35;;
76113;SDS011;64845;53.086;5.834;2023-02-24T02:52:35;7.22;;;1.48;;
76113;SDS011;64845;53.086;5.834;2023-02-24T02:55:11;9.05;;;1.40;;
76113;SDS011;64845;53.086;5.834;2023-02-24T02:57:46;10.82;;;1.60;;
76113;SDS011;64845;53.086;5.834;2023-02-24T03:02:49;11.95;;;1.77;;
76113;SDS011;64845;53.086;5.834;2023-02-24T03:05:20;11.43;;;1.38;;
76113;SDS011;64845;53.086;5.834;2023-02-24T03:07:53;7.95;;;1.70;;
76113;SDS011;64845;53.086;5.834;2023-02-24T03:10:24;6.88;;;1.40;;
76113;SDS011;64845;53.086;5.834;2023-02-24T03:12:52;8.98;;;1.35;;
76113;SDS011;64845;53.086;5.834;2023-02-24T03:15:21;13.60;;;1.90;;
76113;SDS011;64845;53.086;5.834;2023-02-24T03:18:08;11.65;;;1.70;;
76113;SDS011;64845;53.086;5.834;2023-02-24T03:20:44;9.55;;;1.70;;
76113;SDS011;64845;53.086;5.834;2023-02-24T03:23:20;14.40;;;1.65;;
76113;SDS011;64845;53.086;5.834;2023-02-24T03:28:31;11.13;;;1.55;;
76113;SDS011;64845;53.086;5.834;2023-02-24T03:31:09;9.15;;;1.48;;
76113;SDS011;64845;53.086;5.834;2023-02-24T03:33:47;6.30;;;1.42;;
76113;SDS011;64845;53.086;5.834;2023-02-24T03:36:24;7.75;;;1.63;;
76113;SDS011;64845;53.086;5.834;2023-02-24T03:38:50;17.48;;;1.40;;
76113;SDS011;64845;53.086;5.834;2023-02-24T03:41:16;12.10;;;1.60;;
76113;SDS011;64845;53.086;5.834;2023-02-24T03:43:43;9.23;;;1.58;;
76113;SDS011;64845;53.086;5.834;2023-02-24T03:46:12;7.82;;;1.15;;
76113;SDS011;64845;53.086;5.834;2023-02-24T03:48:41;9.02;;;1.77;;
76113;SDS011;64845;53.086;5.834;2023-02-24T03:51:18;8.10;;;1.17;;
76113;SDS011;64845;53.086;5.834;2023-02-24T03:54:01;9.85;;;1.30;;
76113;SDS011;64845;53.086;5.834;2023-02-24T03:56:48;4.00;;;1.08;;
76113;SDS011;64845;53.086;5.834;2023-02-24T03:59:31;7.13;;;1.65;;
76113;SDS011;64845;53.086;5.834;2023-02-24T04:02:16;9.35;;;1.42;;
76113;SDS011;64845;53.086;5.834;2023-02-24T04:04:51;11.30;;;2.00;;
76113;SDS011;64845;53.086;5.834;2023-02-24T04:12:52;9.57;;;1.13;;
76113;SDS011;64845;53.086;5.834;2023-02-24T04:17:55;10.65;;;1.75;;
76113;SDS011;64845;53.086;5.834;2023-02-24T04:23:13;8.60;;;1.30;;
76113;SDS011;64845;53.086;5.834;2023-02-24T04:25:42;6.85;;;1.40;;
76113;SDS011;64845;53.086;5.834;2023-02-24T04:28:10;7.37;;;1.70;;
76113;SDS011;64845;53.086;5.834;2023-02-24T04:30:38;13.88;;;1.73;;
76113;SDS011;64845;53.086;5.834;2023-02-24T04:33:07;14.88;;;1.67;;
76113;SDS011;64845;53.086;5.834;2023-02-24T04:35:34;12.02;;;1.67;;
76113;SDS011;64845;53.086;5.834;2023-02-24T04:38:01;13.07;;;1.85;;
76113;SDS011;64845;53.086;5.834;2023-02-24T04:40:27;10.68;;;2.13;;
76113;SDS011;64845;53.086;5.834;2023-02-24T04:42:53;19.40;;;2.38;;
76113;SDS011;64845;53.086;5.834;2023-02-24T04:45:20;13.32;;;1.60;;
76113;SDS011;64845;53.086;5.834;2023-02-24T04:47:47;10.23;;;1.55;;
76113;SDS011;64845;53.086;5.834;2023-02-24T04:50:16;12.82;;;2.05;;
76113;SDS011;64845;53.086;5.834;2023-02-24T04:52:53;13.02;;;2.08;;
76113;SDS011;64845;53.086;5.834;2023-02-24T04:55:20;11.23;;;2.22;;
76113;SDS011;64845;53.086;5.834;2023-02-24T04:57:56;20.27;;;2.35;;
76113;SDS011;64845;53.086;5.834;2023-02-24T05:00:23;12.50;;;2.53;;
76113;SDS011;64845;53.086;5.834;2023-02-24T05:02:57;13.25;;;2.20;;
76113;SDS011;64845;53.086;5.834;2023-02-24T05:05:26;20.20;;;2.53;;
76113;SDS011;64845;53.086;5.834;2023-02-24T05:07:52;13.45;;;2.10;;
76113;SDS011;64845;53.086;5.834;2023-02-24T05:10:22;14.95;;;2.15;;
76113;SDS011;64845;53.086;5.834;2023-02-24T05:12:55;14.18;;;2.20;;
76113;SDS011;64845;53.086;5.834;2023-02-24T05:15:25;16.75;;;2.20;;
76113;SDS011;64845;53.086;5.834;2023-02-24T05:18:01;12.10;;;1.98;;
76113;SDS011;64845;53.086;5.834;2023-02-24T05:20:34;17.48;;;3.45;;
76113;SDS011;64845;53.086;5.834;2023-02-24T05:23:27;13.90;;;2.80;;
76113;SDS011;64845;53.086;5.834;2023-02-24T05:26:01;17.02;;;2.80;;
76113;SDS011;64845;53.086;5.834;2023-02-24T05:28:32;13.07;;;2.63;;
76113;SDS011;64845;53.086;5.834;2023-02-24T05:31:05;15.32;;;2.90;;
76113;SDS011;64845;53.086;5.834;2023-02-24T05:33:34;17.83;;;2.20;;
76113;SDS011;64845;53.086;5.834;2023-02-24T05:36:03;12.35;;;2.20;;
76113;SDS011;64845;53.086;5.834;2023-02-24T05:38:33;9.88;;;1.85;;
76113;SDS011;64845;53.086;5.834;2023-02-24T05:41:08;15.93;;;2.95;;
76113;SDS011;64845;53.086;5.834;2023-02-24T05:43:44;12.73;;;2.17;;
76113;SDS011;64845;53.086;5.834;2023-02-24T05:46:16;16.95;;;2.72;;
76113;SDS011;64845;53.086;5.834;2023-02-24T05:48:42;14.50;;;3.28;;
76113;SDS011;64845;53.086;5.834;2023-02-24T05:51:08;17.35;;;2.60;;
76113;SDS011;64845;53.086;5.834;2023-02-24T05:53:36;16.50;;;2.47;;
76113;SDS011;64845;53.086;5.834;2023-02-24T05:56:05;16.13;;;3.17;;
76113;SDS011;64845;53.086;5.834;2023-02-24T05:58:31;17.35;;;3.28;;
76113;SDS011;64845;53.086;5.834;2023-02-24T06:00:57;12.63;;;2.63;;
76113;SDS011;64845;53.086;5.834;2023-02-24T06:03:29;16.50;;;3.67;;
76113;SDS011;64845;53.086;5.834;2023-02-24T06:05:55;15.35;;;3.20;;
76113;SDS011;64845;53.086;5.834;2023-02-24T06:08:29;18.92;;;2.92;;
76113;SDS011;64845;53.086;5.834;2023-02-24T06:11:06;17.92;;;3.00;;
76113;SDS011;64845;53.086;5.834;2023-02-24T06:13:32;22.35;;;3.72;;
76113;SDS011;64845;53.086;5.834;2023-02-24T06:15:58;17.02;;;3.10;;
76113;SDS011;64845;53.086;5.834;2023-02-24T06:18:23;20.27;;;3.33;;
76113;SDS011;64845;53.086;5.834;2023-02-24T06:20:48;34.40;;;3.55;;
76113;SDS011;64845;53.086;5.834;2023-02-24T06:23:15;19.05;;;3.17;;
76113;SDS011;64845;53.086;5.834;2023-02-24T06:25:41;17.02;;;3.53;;
76113;SDS011;64845;53.086;5.834;2023-02-24T06:28:07;23.98;;;3.45;;
76113;SDS011;64845;53.086;5.834;2023-02-24T06:30:33;14.75;;;2.75;;
76113;SDS011;64845;53.086;5.834;2023-02-24T06:32:59;12.77;;;2.83;;
76113;SDS011;64845;53.086;5.834;2023-02-24T06:35:24;16.73;;;3.85;;
76113;SDS011;64845;53.086;5.834;2023-02-24T06:37:50;18.52;;;3.10;;
76113;SDS011;64845;53.086;5.834;2023-02-24T06:40:15;17.50;;;2.80;;
76113;SDS011;64845;53.086;5.834;2023-02-24T06:42:44;12.18;;;2.90;;
76113;SDS011;64845;53.086;5.834;2023-02-24T06:45:11;25.02;;;3.80;;
76113;SDS011;64845;53.086;5.834;2023-02-24T06:47:37;15.43;;;2.22;;
76113;SDS011;64845;53.086;5.834;2023-02-24T06:50:03;17.67;;;2.92;;
76113;SDS011;64845;53.086;5.834;2023-02-24T06:52:33;20.42;;;3.45;;
76113;SDS011;64845;53.086;5.834;2023-02-24T06:55:00;19.35;;;3.28;;
76113;SDS011;64845;53.086;5.834;2023-02-24T06:57:28;29.65;;;3.35;;
76113;SDS011;64845;53.086;5.834;2023-02-24T06:59:58;14.63;;;2.70;;
76113;SDS011;64845;53.086;5.834;2023-02-24T07:02:44;20.20;;;2.58;;
76113;SDS011;64845;53.086;5.834;2023-02-24T07:05:09;22.27;;;4.05;;
76113;SDS011;64845;53.086;5.834;2023-02-24T07:07:38;19.00;;;2.60;;
76113;SDS011;64845;53.086;5.834;2023-02-24T07:10:10;17.45;;;3.55;;
76113;SDS011;64845;53.086;5.834;2023-02-24T07:12:38;24.00;;;3.00;;
76113;SDS011;64845;53.086;5.834;2023-02-24T07:15:06;19.50;;;3.15;;
76113;SDS011;64845;53.086;5.834;2023-02-24T07:17:33;14.23;;;2.75;;
76113;SDS011;64845;53.086;5.834;2023-02-24T07:19:58;14.73;;;3.13;;
76113;SDS011;64845;53.086;5.834;2023-02-24T07:22:35;25.48;;;2.92;;
76113;SDS011;64845;53.086;5.834;2023-02-24T07:25:00;16.63;;;2.70;;
76113;SDS011;64845;53.086;5.834;2023-02-24T07:27:25;24.20;;;2.97;;
76113;SDS011;64845;53.086;5.834;2023-02-24T07:29:51;21.30;;;3.05;;
76113;SDS011;64845;53.086;5.834;2023-02-24T07:32:17;26.80;;;3.53;;
76113;SDS011;64845;53.086;5.834;2023-02-24T07:34:46;24.63;;;3.20;;
76113;SDS011;64845;53.086;5.834;2023-02-24T07:37:12;18.77;;;3.10;;
76113;SDS011;64845;53.086;5.834;2023-02-24T07:39:38;16.88;;;3.15;;
76113;SDS011;64845;53.086;5.834;2023-02-24T07:42:04;21.63;;;2.95;;
76113;SDS011;64845;53.086;5.834;2023-02-24T07:44:30;26.35;;;3.40;;
76113;SDS011;64845;53.086;5.834;2023-02-24T07:46:57;26.17;;;4.15;;
76113;SDS011;64845;53.086;5.834;2023-02-24T07:49:23;19.05;;;3.08;;
76113;SDS011;64845;53.086;5.834;2023-02-24T07:51:50;23.13;;;3.58;;
76113;SDS011;64845;53.086;5.834;2023-02-24T07:54:20;13.70;;;2.70;;
76113;SDS011;64845;53.086;5.834;2023-02-24T07:56:47;17.38;;;3.78;;
76113;SDS011;64845;53.086;5.834;2023-02-24T07:59:20;12.77;;;3.28;;
76113;SDS011;64845;53.086;5.834;2023-02-24T08:01:52;15.00;;;2.80;;
76113;SDS011;64845;53.086;5.834;2023-02-24T08:04:20;18.52;;;3.10;;
76113;SDS011;64845;53.086;5.834;2023-02-24T08:06:50;21.40;;;3.35;;
76113;SDS011;64845;53.086;5.834;2023-02-24T08:09:20;9.73;;;3.10;;
76113;SDS011;64845;53.086;5.834;2023-02-24T08:12:08;19.55;;;3.80;;
76113;SDS011;64845;53.086;5.834;2023-02-24T08:14:35;19.30;;;3.53;;
76113;SDS011;64845;53.086;5.834;2023-02-24T08:17:08;17.92;;;3.75;;
76113;SDS011;64845;53.086;5.834;2023-02-24T08:19:35;17.20;;;3.25;;
76113;SDS011;64845;53.086;5.834;2023-02-24T08:22:04;19.30;;;4.30;;
76113;SDS011;64845;53.086;5.834;2023-02-24T08:24:44;20.40;;;3.92;;
76113;SDS011;64845;53.086;5.834;2023-02-24T08:27:14;19.75;;;4.05;;
76113;SDS011;64845;53.086;5.834;2023-02-24T08:29:47;24.02;;;4.97;;
76113;SDS011;64845;53.086;5.834;2023-02-24T08:32:25;16.67;;;4.30;;
76113;SDS011;64845;53.086;5.834;2023-02-24T08:35:01;17.45;;;4.47;;
76113;SDS011;64845;53.086;5.834;2023-02-24T08:37:43;16.58;;;4.28;;
76113;SDS011;64845;53.086;5.834;2023-02-24T08:40:15;17.35;;;3.72;;
76113;SDS011;64845;53.086;5.834;2023-02-24T08:43:07;24.02;;;4.88;;
76113;SDS011;64845;53.086;5.834;2023-02-24T08:45:47;14.43;;;4.70;;
76113;SDS011;64845;53.086;5.834;2023-02-24T08:48:17;14.77;;;5.13;;
76113;SDS011;64845;53.086;5.834;2023-02-24T08:50:54;17.42;;;5.57;;
76113;SDS011;64845;53.086;5.834;2023-02-24T08:53:22;16.60;;;5.45;;
76113;SDS011;64845;53.086;5.834;2023-02-24T08:55:53;21.65;;;5.07;;
76113;SDS011;64845;53.086;5.834;2023-02-24T08:58:20;21.05;;;4.78;;
76113;SDS011;64845;53.086;5.834;2023-02-24T09:00:51;18.65;;;5.55;;
76113;SDS011;64845;53.086;5.834;2023-02-24T09:03:20;21.33;;;6.10;;
76113;SDS011;64845;53.086;5.834;2023-02-24T09:05:56;21.08;;;5.75;;
76113;SDS011;64845;53.086;5.834;2023-02-24T09:08:30;16.30;;;5.47;;
76113;SDS011;64845;53.086;5.834;2023-02-24T09:11:01;17.58;;;5.32;;
76113;SDS011;64845;53.086;5.834;2023-02-24T09:13:35;21.70;;;5.05;;
76113;SDS011;64845;53.086;5.834;2023-02-24T09:16:07;19.65;;;5.47;;
76113;SDS011;64845;53.086;5.834;2023-02-24T09:18:40;16.17;;;4.50;;
76113;SDS011;64845;53.086;5.834;2023-02-24T09:21:10;16.38;;;4.47;;
76113;SDS011;64845;53.086;5.834;2023-02-24T09:24:00;22.63;;;3.30;;
76113;SDS011;64845;53.086;5.834;2023-02-24T09:29:07;17.75;;;3.10;;
76113;SDS011;64845;53.086;5.834;2023-02-24T09:31:59;20.42;;;3.03;;
76113;SDS011;64845;53.086;5.834;2023-02-24T09:34:35;23.40;;;3.80;;
76113;SDS011;64845;53.086;5.834;2023-02-24T09:37:02;25.58;;;4.30;;
76113;SDS011;64845;53.086;5.834;2023-02-24T09:39:33;26.60;;;3.58;;
76113;SDS011;64845;53.086;5.834;2023-02-24T09:42:39;30.60;;;3.70;;
76113;SDS011;64845;53.086;5.834;2023-02-24T09:45:20;29.65;;;3.65;;
76113;SDS011;64845;53.086;5.834;2023-02-24T09:47:57;31.23;;;4.72;;
76113;SDS011;64845;53.086;5.834;2023-02-24T09:50:34;28.08;;;3.60;;
76113;SDS011;64845;53.086;5.834;2023-02-24T09:53:22;32.10;;;4.07;;
76113;SDS011;64845;53.086;5.834;2023-02-24T10:11:46;28.10;;;3.95;;
76113;SDS011;64845;53.086;5.834;2023-02-24T10:17:07;32.20;;;4.60;;
76113;SDS011;64845;53.086;5.834;2023-02-24T10:19:53;38.08;;;4.38;;
76113;SDS011;64845;53.086;5.834;2023-02-24T10:27:37;26.02;;;3.30;;
76113;SDS011;64845;53.086;5.834;2023-02-24T10:30:28;33.60;;;4.65;;
76113;SDS011;64845;53.086;5.834;2023-02-24T10:33:04;28.92;;;4.13;;
76113;SDS011;64845;53.086;5.834;2023-02-24T10:36:04;29.83;;;3.93;;
76113;SDS011;64845;53.086;5.834;2023-02-24T10:38:33;19.92;;;3.22;;
76113;SDS011;64845;53.086;5.834;2023-02-24T10:40:59;31.55;;;4.57;;
76113;SDS011;64845;53.086;5.834;2023-02-24T10:43:30;30.67;;;4.05;;
76113;SDS011;64845;53.086;5.834;2023-02-24T10:46:17;30.10;;;4.85;;
76113;SDS011;64845;53.086;5.834;2023-02-24T10:48:57;31.63;;;4.60;;
76113;SDS011;64845;53.086;5.834;2023-02-24T10:51:24;34.88;;;4.43;;
76113;SDS011;64845;53.086;5.834;2023-02-24T10:54:24;35.85;;;4.95;;
76113;SDS011;64845;53.086;5.834;2023-02-24T10:57:09;32.20;;;4.63;;
76113;SDS011;64845;53.086;5.834;2023-02-24T11:00:06;42.97;;;4.90;;
76113;SDS011;64845;53.086;5.834;2023-02-24T11:02:47;41.42;;;5.43;;
76113;SDS011;64845;53.086;5.834;2023-02-24T11:05:42;34.42;;;4.90;;
76113;SDS011;64845;53.086;5.834;2023-02-24T11:08:33;28.17;;;3.85;;
76113;SDS011;64845;53.086;5.834;2023-02-24T11:11:33;19.65;;;3.67;;
76113;SDS011;64845;53.086;5.834;2023-02-24T11:14:17;23.73;;;4.22;;
76113;SDS011;64845;53.086;5.834;2023-02-24T11:17:01;26.83;;;3.67;;
76113;SDS011;64845;53.086;5.834;2023-02-24T11:22:05;25.80;;;3.50;;
76113;SDS011;64845;53.086;5.834;2023-02-24T11:24:35;24.83;;;3.60;;
76113;SDS011;64845;53.086;5.834;2023-02-24T11:27:02;25.95;;;3.10;;
76113;SDS011;64845;53.086;5.834;2023-02-24T11:32:42;18.17;;;3.75;;
76113;SDS011;64845;53.086;5.834;2023-02-24T11:35:38;18.23;;;3.38;;
76113;SDS011;64845;53.086;5.834;2023-02-24T11:38:24;35.10;;;4.05;;
76113;SDS011;64845;53.086;5.834;2023-02-24T11:41:34;23.77;;;4.18;;
76113;SDS011;64845;53.086;5.834;2023-02-24T11:44:12;31.98;;;4.93;;
76113;SDS011;64845;53.086;5.834;2023-02-24T11:46:46;27.65;;;3.80;;
76113;SDS011;64845;53.086;5.834;2023-02-24T11:49:59;23.80;;;3.85;;
76113;SDS011;64845;53.086;5.834;2023-02-24T11:52:22;18.77;;;3.40;;
76113;SDS011;64845;53.086;5.834;2023-02-24T11:54:55;17.45;;;3.10;;
76113;SDS011;64845;53.086;5.834;2023-02-24T11:57:25;24.45;;;3.28;;
76113;SDS011;64845;53.086;5.834;2023-02-24T12:02:32;32.22;;;3.80;;
76113;SDS011;64845;53.086;5.834;2023-02-24T12:05:15;22.75;;;3.85;;
76113;SDS011;64845;53.086;5.834;2023-02-24T12:07:51;23.58;;;3.78;;
76113;SDS011;64845;53.086;5.834;2023-02-24T12:10:26;16.92;;;2.42;;
76113;SDS011;64845;53.086;5.834;2023-02-24T12:23:45;15.50;;;2.55;;
76113;SDS011;64845;53.086;5.834;2023-02-24T12:37:39;13.63;;;1.90;;
76113;SDS011;64845;53.086;5.834;2023-02-24T12:40:19;5.30;;;1.00;;
76113;SDS011;64845;53.086;5.834;2023-02-24T12:51:06;5.63;;;1.52;;
76113;SDS011;64845;53.086;5.834;2023-02-24T12:53:44;8.30;;;1.35;;
76113;SDS011;64845;53.086;5.834;2023-02-24T12:56:26;6.55;;;1.10;;
76113;SDS011;64845;53.086;5.834;2023-02-24T12:58:59;6.10;;;1.70;;
76113;SDS011;64845;53.086;5.834;2023-02-24T13:04:26;7.68;;;0.98;;
76113;SDS011;64845;53.086;5.834;2023-02-24T13:12:23;10.00;;;1.50;;
76113;SDS011;64845;53.086;5.834;2023-02-24T13:14:57;7.75;;;1.10;;
76113;SDS011;64845;53.086;5.834;2023-02-24T13:17:24;5.28;;;1.02;;
76113;SDS011;64845;53.086;5.834;2023-02-24T13:19:54;4.07;;;1.13;;
76113;SDS011;64845;53.086;5.834;2023-02-24T13:22:27;10.70;;;1.52;;
76113;SDS011;64845;53.086;5.834;2023-02-24T13:24:57;10.48;;;1.48;;
76113;SDS011;64845;53.086;5.834;2023-02-24T13:27:33;11.82;;;1.75;;
76113;SDS011;64845;53.086;5.834;2023-02-24T13:30:03;7.38;;;2.05;;
76113;SDS011;64845;53.086;5.834;2023-02-24T13:32:57;12.95;;;1.92;;
76113;SDS011;64845;53.086;5.834;2023-02-24T13:35:44;15.77;;;2.53;;
76113;SDS011;64845;53.086;5.834;2023-02-24T13:38:25;19.85;;;2.33;;
76113;SDS011;64845;53.086;5.834;2023-02-24T13:46:19;15.20;;;2.35;;
76113;SDS011;64845;53.086;5.834;2023-02-24T13:49:15;11.02;;;2.08;;
76113;SDS011;64845;53.086;5.834;2023-02-24T13:51:57;19.52;;;2.90;;
76113;SDS011;64845;53.086;5.834;2023-02-24T13:57:04;21.80;;;3.47;;
76113;SDS011;64845;53.086;5.834;2023-02-24T14:02:39;13.20;;;1.95;;
76113;SDS011;64845;53.086;5.834;2023-02-24T14:05:09;19.10;;;2.22;;
76113;SDS011;64845;53.086;5.834;2023-02-24T14:07:49;13.23;;;2.03;;
76113;SDS011;64845;53.086;5.834;2023-02-24T14:10:21;13.63;;;2.20;;
76113;SDS011;64845;53.086;5.834;2023-02-24T14:12:49;13.32;;;1.95;;
76113;SDS011;64845;53.086;5.834;2023-02-24T14:15:24;19.20;;;2.40;;
76113;SDS011;64845;53.086;5.834;2023-02-24T14:17:58;13.13;;;2.55;;
76113;SDS011;64845;53.086;5.834;2023-02-24T14:20:32;11.77;;;2.60;;
76113;SDS011;64845;53.086;5.834;2023-02-24T14:25:29;8.10;;;1.42;;
76113;SDS011;64845;53.086;5.834;2023-02-24T14:27:59;13.10;;;2.10;;
76113;SDS011;64845;53.086;5.834;2023-02-24T14:32:51;15.40;;;1.83;;
76113;SDS011;64845;53.086;5.834;2023-02-24T14:35:30;16.67;;;1.85;;
76113;SDS011;64845;53.086;5.834;2023-02-24T14:37:58;10.85;;;1.67;;
76113;SDS011;64845;53.086;5.834;2023-02-24T14:40:24;10.73;;;1.80;;
76113;SDS011;64845;53.086;5.834;2023-02-24T14:42:50;14.07;;;2.30;;
76113;SDS011;64845;53.086;5.834;2023-02-24T14:45:20;12.00;;;2.10;;
76113;SDS011;64845;53.086;5.834;2023-02-24T14:47:48;16.63;;;2.65;;
76113;SDS011;64845;53.086;5.834;2023-02-24T14:50:14;19.67;;;2.90;;
76113;SDS011;64845;53.086;5.834;2023-02-24T14:52:49;15.70;;;2.90;;
76113;SDS011;64845;53.086;5.834;2023-02-24T14:55:36;20.88;;;3.03;;
76113;SDS011;64845;53.086;5.834;2023-02-24T14:58:10;19.23;;;2.80;;
76113;SDS011;64845;53.086;5.834;2023-02-24T15:00:40;10.07;;;1.95;;
76113;SDS011;64845;53.086;5.834;2023-02-24T15:06:04;13.65;;;1.92;;
76113;SDS011;64845;53.086;5.834;2023-02-24T15:13:45;26.33;;;2.30;;
76113;SDS011;64845;53.086;5.834;2023-02-24T15:16:28;11.85;;;1.95;;
76113;SDS011;64845;53.086;5.834;2023-02-24T15:19:00;5.03;;;1.33;;
76113;SDS011;64845;53.086;5.834;2023-02-24T15:21:30;10.65;;;1.80;;
76113;SDS011;64845;53.086;5.834;2023-02-24T15:24:15;12.73;;;1.80;;
76113;SDS011;64845;53.086;5.834;2023-02-24T15:26:53;13.68;;;2.20;;
76113;SDS011;64845;53.086;5.834;2023-02-24T15:29:26;15.70;;;2.30;;
76113;SDS011;64845;53.086;5.834;2023-02-24T15:31:54;16.77;;;2.20;;
76113;SDS011;64845;53.086;5.834;2023-02-24T15:34:22;19.42;;;2.55;;
76113;SDS011;64845;53.086;5.834;2023-02-24T15:36:53;14.00;;;2.40;;
76113;SDS011;64845;53.086;5.834;2023-02-24T15:39:22;15.60;;;2.58;;
76113;SDS011;64845;53.086;5.834;2023-02-24T15:41:51;20.25;;;3.05;;
76113;SDS011;64845;53.086;5.834;2023-02-24T15:44:30;14.18;;;1.77;;
76113;SDS011;64845;53.086;5.834;2023-02-24T15:46:57;15.30;;;2.08;;
76113;SDS011;64845;53.086;5.834;2023-02-24T15:49:24;17.05;;;2.42;;
76113;SDS011;64845;53.086;5.834;2023-02-24T15:51:52;20.90;;;2.42;;
76113;SDS011;64845;53.086;5.834;2023-02-24T15:54:27;24.63;;;3.85;;
76113;SDS011;64845;53.086;5.834;2023-02-24T15:56:55;12.98;;;2.15;;
76113;SDS011;64845;53.086;5.834;2023-02-24T15:59:22;12.85;;;2.45;;
76113;SDS011;64845;53.086;5.834;2023-02-24T16:01:47;17.35;;;3.35;;
76113;SDS011;64845;53.086;5.834;2023-02-24T16:04:15;18.48;;;2.28;;
76113;SDS011;64845;53.086;5.834;2023-02-24T16:06:41;16.75;;;2.60;;
76113;SDS011;64845;53.086;5.834;2023-02-24T16:09:18;17.20;;;2.17;;
76113;SDS011;64845;53.086;5.834;2023-02-24T16:12:04;18.98;;;3.60;;
76113;SDS011;64845;53.086;5.834;2023-02-24T16:14:36;19.13;;;2.50;;
76113;SDS011;64845;53.086;5.834;2023-02-24T16:17:04;19.67;;;2.17;;
76113;SDS011;64845;53.086;5.834;2023-02-24T16:19:32;19.52;;;2.75;;
76113;SDS011;64845;53.086;5.834;2023-02-24T16:21:58;17.45;;;2.60;;
76113;SDS011;64845;53.086;5.834;2023-02-24T16:24:24;17.30;;;2.88;;
76113;SDS011;64845;53.086;5.834;2023-02-24T16:26:49;20.52;;;2.35;;
76113;SDS011;64845;53.086;5.834;2023-02-24T16:29:14;16.20;;;2.38;;
76113;SDS011;64845;53.086;5.834;2023-02-24T16:31:40;15.70;;;2.65;;
76113;SDS011;64845;53.086;5.834;2023-02-24T16:34:06;29.40;;;3.72;;
76113;SDS011;64845;53.086;5.834;2023-02-24T16:36:31;20.98;;;3.42;;
76113;SDS011;64845;53.086;5.834;2023-02-24T16:38:57;25.55;;;3.63;;
76113;SDS011;64845;53.086;5.834;2023-02-24T16:41:23;25.33;;;3.97;;
76113;SDS011;64845;53.086;5.834;2023-02-24T16:43:48;24.83;;;3.75;;
76113;SDS011;64845;53.086;5.834;2023-02-24T16:46:16;26.67;;;3.88;;
76113;SDS011;64845;53.086;5.834;2023-02-24T16:48:43;21.85;;;3.90;;
76113;SDS011;64845;53.086;5.834;2023-02-24T16:51:10;34.33;;;4.20;;
76113;SDS011;64845;53.086;5.834;2023-02-24T16:53:37;28.63;;;4.03;;
76113;SDS011;64845;53.086;5.834;2023-02-24T16:56:02;33.63;;;4.95;;
76113;SDS011;64845;53.086;5.834;2023-02-24T16:58:29;24.58;;;4.00;;
76113;SDS011;64845;53.086;5.834;2023-02-24T17:00:55;37.03;;;5.40;;
76113;SDS011;64845;53.086;5.834;2023-02-24T17:06:20;27.63;;;4.43;;
76113;SDS011;64845;53.086;5.834;2023-02-24T17:08:47;26.17;;;3.90;;
76113;SDS011;64845;53.086;5.834;2023-02-24T17:11:13;27.10;;;4.65;;
76113;SDS011;64845;53.086;5.834;2023-02-24T17:13:41;24.55;;;3.83;;
76113;SDS011;64845;53.086;5.834;2023-02-24T17:16:07;37.53;;;4.25;;
76113;SDS011;64845;53.086;5.834;2023-02-24T17:18:33;19.27;;;2.35;;
76113;SDS011;64845;53.086;5.834;2023-02-24T17:20:59;11.85;;;2.47;;
76113;SDS011;64845;53.086;5.834;2023-02-24T17:23:24;15.20;;;2.65;;
76113;SDS011;64845;53.086;5.834;2023-02-24T17:25:54;19.95;;;2.92;;